createdAt,value
2022-10-12T00:01:21.778Z,4.13
2022-10-12T00:03:50.695Z,3.97
2022-10-12T00:06:21.899Z,4.32
2022-10-12T00:08:51.897Z,4.55
2022-10-12T00:11:24.989Z,4.13
2022-10-12T00:13:54.696Z,4.28
2022-10-12T00:16:24.489Z,4.47
2022-10-12T00:18:55.621Z,4.47
2022-10-12T00:21:25.664Z,4.32
2022-10-12T00:24:00.338Z,4.25
2022-10-12T00:26:29.655Z,4.45
2022-10-12T00:29:01.362Z,4.40
2022-10-12T00:31:30.573Z,4.82
2022-10-12T00:34:03.574Z,5.32
2022-10-12T00:36:36.138Z,4.43
2022-10-12T00:39:06.652Z,4.35
2022-10-12T00:41:43.486Z,4.70
2022-10-12T00:44:42.090Z,4.47
2022-10-12T00:47:21.568Z,4.75
2022-10-12T00:50:14.301Z,4.93
2022-10-12T00:52:49.944Z,4.95
2022-10-12T00:55:21.170Z,4.50
2022-10-12T00:57:52.623Z,4.32
2022-10-12T01:00:21.970Z,4.88
2022-10-12T01:02:53.214Z,4.57
2022-10-12T01:05:23.016Z,4.50
2022-10-12T01:07:53.750Z,4.43
2022-10-12T01:10:22.401Z,4.55
2022-10-12T01:12:50.947Z,4.75
2022-10-12T01:15:19.436Z,4.18
2022-10-12T01:18:09.238Z,4.38
2022-10-12T01:20:40.535Z,4.47
2022-10-12T01:23:41.796Z,5.30
2022-10-12T01:26:16.514Z,4.75
2022-10-12T01:28:45.069Z,4.43
2022-10-12T01:31:32.930Z,4.60
2022-10-12T01:34:18.803Z,3.97
2022-10-12T01:37:22.360Z,4.60
2022-10-12T01:39:54.932Z,3.92
2022-10-12T01:42:29.167Z,4.65
2022-10-12T01:45:12.765Z,4.63
2022-10-12T01:47:44.497Z,4.85
2022-10-12T01:50:15.306Z,4.53
2022-10-12T01:55:32.901Z,5.13
2022-10-12T01:58:04.083Z,4.93
2022-10-12T02:00:42.624Z,6.10
2022-10-12T02:03:10.844Z,5.00
2022-10-12T02:06:11.428Z,5.07
2022-10-12T02:08:59.323Z,5.07
2022-10-12T02:11:28.510Z,4.90
2022-10-12T02:14:03.428Z,4.70
2022-10-12T02:16:41.190Z,4.07
2022-10-12T02:19:13.531Z,4.50
2022-10-12T02:21:44.853Z,4.25
2022-10-12T02:24:16.703Z,4.03
2022-10-12T02:26:48.015Z,3.90
2022-10-12T02:29:26.342Z,3.80
2022-10-12T02:32:01.598Z,3.92
2022-10-12T02:35:03.215Z,3.65
2022-10-12T02:37:51.364Z,5.57
2022-10-12T02:40:34.719Z,3.78
2022-10-12T02:43:11.376Z,3.83
2022-10-12T02:45:44.138Z,3.90
2022-10-12T02:48:17.714Z,4.72
2022-10-12T02:50:49.640Z,3.30
2022-10-12T02:53:18.374Z,3.88
2022-10-12T02:56:01.120Z,3.50
2022-10-12T02:58:29.571Z,3.38
2022-10-12T03:00:58.422Z,3.35
2022-10-12T03:03:27.796Z,3.10
2022-10-12T03:05:56.317Z,3.10
2022-10-12T03:08:24.656Z,3.38
2022-10-12T03:10:53.062Z,3.60
2022-10-12T03:13:24.350Z,3.03
2022-10-12T03:15:52.577Z,3.33
2022-10-12T03:18:20.995Z,3.42
2022-10-12T03:20:49.949Z,3.60
2022-10-12T03:23:18.401Z,3.20
2022-10-12T03:25:46.677Z,3.80
2022-10-12T03:28:15.001Z,3.78
2022-10-12T03:30:44.989Z,3.85
2022-10-12T03:33:13.894Z,4.25
2022-10-12T03:35:45.732Z,4.00
2022-10-12T03:38:15.655Z,4.20
2022-10-12T03:40:44.806Z,3.93
2022-10-12T03:43:13.799Z,3.50
2022-10-12T03:45:42.282Z,3.40
2022-10-12T03:48:10.662Z,4.32
2022-10-12T03:50:39.099Z,3.58
2022-10-12T03:53:07.870Z,4.20
2022-10-12T03:55:41.735Z,4.88
2022-10-12T03:58:10.006Z,4.63
2022-10-12T04:00:38.498Z,4.65
2022-10-12T04:03:06.784Z,4.80
2022-10-12T04:05:35.327Z,5.00
2022-10-12T04:08:03.643Z,4.00
2022-10-12T04:10:31.871Z,4.65
2022-10-12T04:13:00.187Z,4.60
2022-10-12T04:15:28.445Z,4.05
2022-10-12T04:17:57.118Z,4.10
2022-10-12T04:20:25.880Z,3.95
2022-10-12T04:22:54.146Z,4.85
2022-10-12T04:25:29.164Z,4.85
2022-10-12T04:27:59.170Z,4.03
2022-10-12T04:30:27.746Z,3.67
2022-10-12T04:32:56.452Z,3.67
2022-10-12T04:35:24.785Z,4.00
2022-10-12T04:37:54.594Z,3.53
2022-10-12T04:40:22.950Z,3.73
2022-10-12T04:42:51.989Z,4.55
2022-10-12T04:45:20.410Z,4.18
2022-10-12T04:47:48.874Z,3.78
2022-10-12T04:50:17.444Z,3.83
2022-10-12T04:52:45.749Z,4.10
2022-10-12T04:55:14.415Z,3.78
2022-10-12T04:57:42.821Z,3.95
2022-10-12T05:00:11.806Z,3.90
2022-10-12T05:02:40.525Z,4.60
2022-10-12T05:05:09.225Z,5.07
2022-10-12T05:07:37.754Z,4.05
2022-10-12T05:10:07.015Z,4.05
2022-10-12T05:12:35.510Z,6.03
2022-10-12T05:15:04.469Z,4.70
2022-10-12T05:17:32.759Z,5.57
2022-10-12T05:20:01.386Z,3.95
2022-10-12T05:22:31.320Z,3.63
2022-10-12T05:25:00.037Z,4.32
2022-10-12T05:27:28.281Z,3.95
2022-10-12T05:29:56.631Z,3.90
2022-10-12T05:32:25.107Z,4.30
2022-10-12T05:34:55.137Z,5.38
2022-10-12T05:37:23.560Z,4.80
2022-10-12T05:39:52.122Z,4.75
2022-10-12T05:42:20.460Z,5.00
2022-10-12T05:44:48.764Z,4.20
2022-10-12T05:47:17.072Z,4.38
2022-10-12T05:49:48.422Z,5.07
2022-10-12T05:52:17.065Z,5.18
2022-10-12T05:54:46.477Z,5.05
2022-10-12T05:57:19.770Z,4.97
2022-10-12T05:59:48.630Z,4.75
2022-10-12T06:02:18.645Z,6.20
2022-10-12T06:04:47.965Z,6.10
2022-10-12T06:07:16.617Z,6.10
2022-10-12T06:09:44.951Z,6.55
2022-10-12T06:12:13.410Z,5.97
2022-10-12T06:14:41.806Z,7.18
2022-10-12T06:17:11.296Z,7.40
2022-10-12T06:19:39.838Z,7.07
2022-10-12T06:22:08.093Z,6.88
2022-10-12T06:24:36.412Z,6.80
2022-10-12T06:27:05.249Z,6.35
2022-10-12T06:29:33.887Z,6.45
2022-10-12T06:32:02.295Z,7.07
2022-10-12T06:34:30.809Z,7.30
2022-10-12T06:37:01.811Z,7.38
2022-10-12T06:39:31.048Z,7.75
2022-10-12T06:42:00.878Z,6.63
2022-10-12T06:44:30.082Z,8.25
2022-10-12T06:46:58.321Z,7.78
2022-10-12T06:49:26.641Z,7.85
2022-10-12T06:51:54.913Z,7.70
2022-10-12T06:54:23.331Z,8.02
2022-10-12T06:56:54.321Z,8.38
2022-10-12T06:59:26.451Z,10.25
2022-10-12T07:01:54.773Z,9.32
2022-10-12T07:04:24.972Z,8.15
2022-10-12T07:06:56.321Z,8.73
2022-10-12T07:09:24.659Z,8.60
2022-10-12T07:11:52.972Z,8.48
2022-10-12T07:14:21.809Z,7.22
2022-10-12T07:16:55.281Z,8.10
2022-10-12T07:19:23.947Z,8.68
2022-10-12T07:21:53.085Z,8.23
2022-10-12T07:24:21.401Z,8.50
2022-10-12T07:26:51.610Z,8.25
2022-10-12T07:29:20.273Z,8.23
2022-10-12T07:31:51.973Z,7.55
2022-10-12T07:34:20.616Z,7.78
2022-10-12T07:36:59.201Z,7.85
2022-10-12T07:39:29.786Z,8.43
2022-10-12T07:41:58.146Z,7.97
2022-10-12T07:44:26.471Z,7.90
2022-10-12T07:46:54.865Z,7.40
2022-10-12T07:49:23.199Z,7.60
2022-10-12T07:51:52.753Z,6.78
2022-10-12T07:54:26.810Z,6.82
2022-10-12T07:56:57.362Z,5.88
2022-10-12T07:59:25.835Z,6.18
2022-10-12T08:01:54.223Z,6.60
2022-10-12T08:04:22.994Z,6.68
2022-10-12T08:06:51.356Z,6.32
2022-10-12T08:09:19.941Z,7.90
2022-10-12T08:11:48.149Z,6.63
2022-10-12T08:14:17.198Z,5.95
2022-10-12T08:16:45.761Z,5.95
2022-10-12T08:19:14.564Z,5.47
2022-10-12T08:21:43.181Z,6.55
2022-10-12T08:24:13.528Z,6.00
2022-10-12T08:26:41.908Z,6.25
2022-10-12T08:29:10.857Z,5.72
2022-10-12T08:31:39.896Z,6.78
2022-10-12T08:34:08.288Z,6.40
2022-10-12T08:36:38.140Z,6.55
2022-10-12T08:39:08.835Z,6.25
2022-10-12T08:44:21.910Z,6.38
2022-10-12T08:47:00.337Z,6.68
2022-10-12T08:49:31.355Z,5.72
2022-10-12T08:52:06.274Z,5.85
2022-10-12T08:54:45.714Z,6.07
2022-10-12T08:57:17.782Z,6.03
2022-10-12T08:59:47.818Z,6.50
2022-10-12T09:02:31.154Z,6.18
2022-10-12T09:05:31.981Z,6.30
2022-10-12T09:08:29.034Z,5.93
2022-10-12T09:11:21.995Z,6.10
2022-10-12T09:14:01.551Z,5.68
2022-10-12T09:16:33.991Z,6.55
2022-10-12T09:19:18.092Z,6.38
2022-10-12T09:21:51.314Z,6.40
2022-10-12T09:24:27.830Z,6.53
2022-10-12T09:27:03.565Z,6.68
2022-10-12T09:29:33.682Z,5.97
2022-10-12T09:32:20.458Z,6.10
2022-10-12T09:34:49.802Z,5.82
2022-10-12T09:37:30.366Z,5.90
2022-10-12T09:40:02.152Z,5.55
2022-10-12T09:42:33.057Z,5.80
2022-10-12T09:45:16.652Z,5.72
2022-10-12T09:48:21.436Z,5.05
2022-10-12T09:50:59.089Z,5.28
2022-10-12T09:53:57.635Z,5.20
2022-10-12T09:56:30.813Z,5.35
2022-10-12T09:59:02.248Z,5.20
2022-10-12T10:01:33.936Z,5.40
2022-10-12T10:04:17.823Z,6.50
2022-10-12T10:06:47.569Z,5.97
2022-10-12T10:09:36.239Z,6.00
2022-10-12T10:12:26.137Z,5.68
2022-10-12T10:14:59.587Z,5.23
2022-10-12T10:17:31.551Z,4.60
2022-10-12T10:20:03.555Z,4.65
2022-10-12T10:22:32.589Z,4.90
2022-10-12T10:25:01.533Z,4.78
2022-10-12T10:27:37.565Z,4.85
2022-10-12T10:30:30.005Z,4.55
2022-10-12T10:33:31.257Z,5.18
2022-10-12T10:36:22.450Z,4.72
2022-10-12T10:39:25.904Z,4.88
2022-10-12T10:41:56.281Z,4.65
2022-10-12T10:44:33.656Z,3.92
2022-10-12T10:47:13.468Z,3.58
2022-10-12T10:49:48.648Z,3.60
2022-10-12T10:52:24.189Z,4.10
2022-10-12T10:55:10.805Z,3.67
2022-10-12T10:57:45.263Z,4.25
2022-10-12T11:00:37.996Z,3.17
2022-10-12T11:03:16.767Z,3.28
2022-10-12T11:05:54.643Z,3.40
2022-10-12T11:08:26.313Z,3.58
2022-10-12T11:11:00.575Z,3.28
2022-10-12T11:13:34.763Z,3.30
2022-10-12T11:16:30.890Z,2.88
2022-10-12T11:19:21.855Z,2.67
2022-10-12T11:22:05.781Z,3.53
2022-10-12T11:24:45.451Z,2.85
2022-10-12T11:27:26.899Z,2.60
2022-10-12T11:30:08.998Z,2.42
2022-10-12T11:32:45.703Z,2.50
2022-10-12T11:35:27.351Z,2.97
2022-10-12T11:38:24.308Z,2.53
2022-10-12T11:41:35.342Z,2.78
2022-10-12T11:44:20.737Z,2.65
2022-10-12T11:47:06.384Z,2.70
2022-10-12T11:50:10.682Z,2.30
2022-10-12T11:52:47.285Z,2.58
2022-10-12T11:55:34.538Z,2.70
2022-10-12T11:58:13.732Z,2.75
2022-10-12T12:01:02.785Z,2.03
2022-10-12T12:03:46.648Z,2.45
2022-10-12T12:06:30.454Z,2.50
2022-10-12T12:09:17.804Z,2.05
2022-10-12T12:11:46.155Z,2.15
2022-10-12T12:14:26.543Z,2.10
2022-10-12T12:17:32.364Z,2.35
2022-10-12T12:20:04.857Z,1.95
2022-10-12T12:23:02.692Z,2.40
2022-10-12T12:25:33.130Z,2.38
2022-10-12T12:28:21.811Z,2.65
2022-10-12T12:31:06.386Z,2.30
2022-10-12T12:33:42.104Z,1.85
2022-10-12T12:36:35.732Z,1.70
2022-10-12T12:39:23.366Z,2.83
2022-10-12T12:42:01.912Z,1.88
2022-10-12T12:44:43.205Z,1.85
2022-10-12T12:50:30.352Z,1.70
2022-10-12T12:53:19.422Z,1.90
2022-10-12T12:56:00.261Z,2.00
2022-10-12T13:01:42.558Z,2.55
2022-10-12T13:04:11.615Z,1.60
2022-10-12T13:06:58.528Z,2.00
2022-10-12T13:09:32.768Z,1.92
2022-10-12T13:12:46.826Z,2.45
2022-10-12T13:15:39.940Z,1.95
2022-10-12T13:18:45.914Z,1.90
2022-10-12T13:21:24.519Z,2.00
2022-10-12T13:24:16.660Z,2.55
2022-10-12T13:26:48.108Z,2.00
2022-10-12T13:29:43.621Z,2.00
2022-10-12T13:32:32.799Z,1.90
2022-10-12T13:35:37.004Z,1.77
2022-10-12T13:38:14.525Z,2.55
2022-10-12T13:40:51.466Z,1.95
2022-10-12T13:43:22.904Z,1.70
2022-10-12T13:45:51.252Z,2.53
2022-10-12T13:48:39.799Z,2.35
2022-10-12T13:51:23.299Z,2.55
2022-10-12T13:53:51.638Z,2.35
2022-10-12T13:56:23.205Z,2.05
2022-10-12T13:58:56.749Z,2.13
2022-10-12T14:01:26.433Z,2.25
2022-10-12T14:06:38.472Z,2.88
2022-10-12T14:09:12.705Z,1.92
2022-10-12T14:11:43.071Z,2.13
2022-10-12T14:14:25.762Z,2.33
2022-10-12T14:16:54.335Z,2.97
2022-10-12T14:19:45.192Z,3.08
2022-10-12T14:24:48.902Z,3.00
2022-10-12T14:27:28.674Z,2.53
2022-10-12T14:30:04.784Z,2.50
2022-10-12T14:32:41.458Z,2.25
2022-10-12T14:35:14.882Z,3.30
2022-10-12T14:37:43.268Z,2.80
2022-10-12T14:40:26.731Z,2.90
2022-10-12T14:43:10.189Z,3.10
2022-10-12T14:45:38.474Z,3.42
2022-10-12T14:48:16.363Z,2.90
2022-10-12T14:50:45.431Z,2.60
2022-10-12T14:53:14.852Z,2.80
2022-10-12T14:55:44.667Z,2.67
2022-10-12T14:58:16.503Z,3.13
2022-10-12T15:00:45.074Z,2.10
2022-10-12T15:03:13.515Z,2.65
2022-10-12T15:05:41.822Z,3.08
2022-10-12T15:08:10.433Z,2.55
2022-10-12T15:10:38.695Z,2.50
2022-10-12T15:13:07.659Z,2.72
2022-10-12T15:15:39.393Z,2.30
2022-10-12T15:18:08.359Z,2.05
2022-10-12T15:20:37.428Z,2.70
2022-10-12T15:23:06.441Z,2.75
2022-10-12T15:25:34.745Z,2.72
2022-10-12T15:28:03.877Z,2.47
2022-10-12T15:30:33.887Z,2.47
2022-10-12T15:33:05.184Z,3.13
2022-10-12T15:35:35.825Z,2.75
2022-10-12T15:38:07.207Z,2.95
2022-10-12T15:40:44.717Z,3.10
2022-10-12T15:43:13.242Z,2.70
2022-10-12T15:45:41.636Z,2.35
2022-10-12T15:48:11.987Z,2.75
2022-10-12T15:50:50.056Z,2.60
2022-10-12T15:53:24.866Z,2.38
2022-10-12T15:55:55.306Z,2.70
2022-10-12T15:58:24.111Z,3.25
2022-10-12T16:00:52.437Z,2.65
2022-10-12T16:03:25.891Z,2.70
2022-10-12T16:05:54.873Z,3.08
2022-10-12T16:08:25.663Z,2.95
2022-10-12T16:10:53.933Z,3.42
2022-10-12T16:13:23.854Z,3.00
2022-10-12T16:15:52.162Z,2.65
2022-10-12T16:18:20.602Z,3.40
2022-10-12T16:20:53.548Z,2.58
2022-10-12T16:23:26.383Z,3.50
2022-10-12T16:25:55.897Z,2.75
2022-10-12T16:28:25.179Z,2.72
2022-10-12T16:30:53.966Z,2.78
2022-10-12T16:33:22.231Z,2.97
2022-10-12T16:35:50.693Z,2.83
2022-10-12T16:38:22.469Z,2.60
2022-10-12T16:40:54.076Z,3.45
2022-10-12T16:43:22.639Z,3.25
2022-10-12T16:45:57.036Z,3.60
2022-10-12T16:48:26.269Z,3.10
2022-10-12T16:50:55.106Z,2.90
2022-10-12T16:53:23.597Z,3.40
2022-10-12T16:55:52.467Z,2.92
2022-10-12T16:58:21.887Z,3.20
2022-10-12T17:00:50.496Z,2.83
2022-10-12T17:03:20.106Z,2.92
2022-10-12T17:05:48.343Z,3.30
2022-10-12T17:08:17.806Z,2.58
2022-10-12T17:10:46.127Z,2.92
2022-10-12T17:13:15.338Z,2.67
2022-10-12T17:15:43.737Z,3.10
2022-10-12T17:18:12.205Z,2.83
2022-10-12T17:20:40.469Z,2.92
2022-10-12T17:23:08.703Z,3.13
2022-10-12T17:25:37.738Z,3.15
2022-10-12T17:28:05.978Z,3.28
2022-10-12T17:30:35.765Z,3.30
2022-10-12T17:33:04.113Z,3.57
2022-10-12T17:35:32.465Z,3.80
2022-10-12T17:38:00.705Z,3.20
2022-10-12T17:40:28.968Z,3.72
2022-10-12T17:42:57.335Z,3.33
2022-10-12T17:45:25.898Z,3.83
2022-10-12T17:47:55.635Z,3.72
2022-10-12T17:50:23.937Z,4.45
2022-10-12T17:52:53.443Z,4.00
2022-10-12T17:55:47.217Z,4.65
2022-10-12T17:58:12.817Z,5.00
2022-10-12T18:00:41.205Z,4.70
2022-10-12T18:03:11.464Z,4.78
2022-10-12T18:05:40.222Z,5.53
2022-10-12T18:08:11.084Z,4.57
2022-10-12T18:10:41.446Z,4.53
2022-10-12T18:13:09.813Z,4.10
2022-10-12T18:15:46.440Z,4.75
2022-10-12T18:18:16.285Z,4.82
2022-10-12T18:20:47.791Z,4.60
2022-10-12T18:23:16.309Z,4.65
2022-10-12T18:25:46.811Z,4.70
2022-10-12T18:28:15.326Z,4.00
2022-10-12T18:30:50.078Z,5.03
2022-10-12T18:33:21.074Z,5.05
2022-10-12T18:35:51.420Z,4.85
2022-10-12T18:38:20.307Z,5.28
2022-10-12T18:40:48.742Z,4.65
2022-10-12T18:43:17.237Z,4.78
2022-10-12T18:45:45.960Z,5.00
2022-10-12T18:48:15.080Z,6.50
2022-10-12T18:50:45.517Z,5.38
2022-10-12T18:53:15.291Z,6.03
2022-10-12T18:55:46.096Z,8.02
2022-10-12T19:00:43.943Z,6.60
2022-10-12T19:03:13.136Z,7.28
2022-10-12T19:05:44.786Z,7.03
2022-10-12T19:08:13.220Z,7.20
2022-10-12T19:10:42.132Z,7.18
2022-10-12T19:13:10.424Z,9.57
2022-10-12T19:15:38.815Z,10.40
2022-10-12T19:18:07.305Z,9.70
2022-10-12T19:20:38.865Z,8.55
2022-10-12T19:23:07.306Z,7.97
2022-10-12T19:25:39.097Z,7.20
2022-10-12T19:28:20.628Z,7.47
2022-10-12T19:30:48.968Z,6.85
2022-10-12T19:33:23.890Z,7.57
2022-10-12T19:35:52.331Z,7.60
2022-10-12T19:38:20.954Z,7.35
2022-10-12T19:40:51.042Z,7.40
2022-10-12T19:43:19.957Z,6.70
2022-10-12T19:45:48.629Z,7.05
2022-10-12T19:48:18.025Z,6.93
2022-10-12T19:50:46.452Z,7.00
2022-10-12T19:53:15.116Z,7.07
2022-10-12T19:55:43.466Z,6.53
2022-10-12T19:58:12.647Z,6.95
2022-10-12T20:00:41.205Z,6.68
2022-10-12T20:03:09.900Z,6.95
2022-10-12T20:05:38.617Z,6.60
2022-10-12T20:08:06.894Z,6.03
2022-10-12T20:10:37.239Z,7.47
2022-10-12T20:13:07.539Z,6.30
2022-10-12T20:15:35.911Z,6.93
2022-10-12T20:18:05.597Z,6.82
2022-10-12T20:20:41.211Z,6.72
2022-10-12T20:23:13.928Z,7.05
2022-10-12T20:26:05.224Z,6.78
2022-10-12T20:28:38.360Z,6.65
2022-10-12T20:31:07.671Z,7.50
2022-10-12T20:33:39.930Z,7.10
2022-10-12T20:36:12.524Z,7.15
2022-10-12T20:38:40.906Z,6.68
2022-10-12T20:41:14.101Z,6.38
2022-10-12T20:43:43.267Z,7.07
2022-10-12T20:46:15.358Z,6.28
2022-10-12T20:48:44.729Z,6.53
2022-10-12T20:51:19.811Z,6.63
2022-10-12T20:53:58.104Z,5.93
2022-10-12T20:56:30.823Z,6.10
2022-10-12T20:59:00.691Z,5.93
2022-10-12T21:01:31.838Z,6.07
2022-10-12T21:04:00.321Z,6.00
2022-10-12T21:06:32.441Z,5.97
2022-10-12T21:09:03.533Z,6.47
2022-10-12T21:11:33.135Z,6.20
2022-10-12T21:14:04.074Z,6.57
2022-10-12T21:16:33.663Z,7.35
2022-10-12T21:19:02.103Z,7.18
2022-10-12T21:21:33.391Z,6.88
2022-10-12T21:24:02.168Z,7.00
2022-10-12T21:26:33.749Z,6.85
2022-10-12T21:29:02.317Z,7.32
2022-10-12T21:31:34.034Z,6.75
2022-10-12T21:34:05.613Z,7.65
2022-10-12T21:36:39.578Z,6.60
2022-10-12T21:39:18.676Z,7.43
2022-10-12T21:41:48.147Z,6.93
2022-10-12T21:44:18.747Z,7.00
2022-10-12T21:46:47.209Z,7.03
2022-10-12T21:49:15.748Z,7.57
2022-10-12T21:51:44.150Z,7.13
2022-10-12T21:54:16.543Z,8.10
2022-10-12T21:56:45.003Z,7.82
2022-10-12T21:59:15.062Z,8.52
2022-10-12T22:01:43.804Z,7.95
2022-10-12T22:04:14.392Z,7.60
2022-10-12T22:06:43.601Z,8.38
2022-10-12T22:09:18.995Z,7.45
2022-10-12T22:11:49.960Z,7.70
2022-10-12T22:14:19.210Z,8.05
2022-10-12T22:16:47.997Z,8.02
2022-10-12T22:19:18.971Z,7.80
2022-10-12T22:21:49.546Z,7.82
2022-10-12T22:24:22.304Z,7.68
2022-10-12T22:26:50.805Z,7.93
2022-10-12T22:29:19.469Z,8.07
2022-10-12T22:31:51.695Z,8.40
2022-10-12T22:34:24.114Z,8.25
2022-10-12T22:36:54.510Z,8.57
2022-10-12T22:39:25.853Z,8.55
2022-10-12T22:41:54.215Z,8.15
2022-10-12T22:44:22.728Z,9.07
2022-10-12T22:46:55.654Z,8.73
2022-10-12T22:49:23.955Z,8.75
2022-10-12T22:51:52.242Z,9.32
2022-10-12T22:54:20.518Z,9.13
2022-10-12T22:56:51.206Z,8.70
2022-10-12T22:59:19.838Z,8.77
2022-10-12T23:01:48.956Z,8.43
2022-10-12T23:04:23.612Z,9.10
2022-10-12T23:06:51.917Z,10.05
2022-10-12T23:09:20.273Z,10.55
2022-10-12T23:11:50.056Z,10.55
2022-10-12T23:14:18.384Z,9.60
2022-10-12T23:16:47.816Z,9.07
2022-10-12T23:19:16.146Z,8.93
2022-10-12T23:21:44.950Z,9.73
2022-10-12T23:24:13.444Z,9.50
2022-10-12T23:26:41.773Z,9.27
2022-10-12T23:29:10.466Z,9.35
2022-10-12T23:31:39.133Z,9.65
2022-10-12T23:34:07.709Z,10.23
2022-10-12T23:36:37.122Z,9.52
2022-10-12T23:39:05.800Z,8.75
2022-10-12T23:41:34.381Z,10.05
2022-10-12T23:44:02.702Z,8.45
2022-10-12T23:46:31.116Z,9.57
2022-10-12T23:49:00.196Z,9.60
2022-10-12T23:51:28.642Z,8.65
2022-10-12T23:53:57.948Z,9.80
2022-10-12T23:56:26.643Z,8.77
2022-10-12T23:58:54.987Z,9.68
